Terminal Aerodrome Forecast
Issued by NWS

Home | Current Version | Previous Version | Text Only | Print | Product List | Glossary On
Versions: 1 2 3 4 5 6 7 8 9 10 11 12 13 14 15 16 17 18
000
FTAK31 PANC 272325
TAFAHO
TAF
PAHO 272325Z 2800/2824 23010KT P6SM FEW050
     FM280300 31008KT P6SM FEW050
     FM280700 05004KT P6SM SKC
     FM282100 25008KT P6SM FEW045=

USA.gov is the U.S. government's official web portal to all federal, state and local government web resources and services.